sim
Sign-in with your pilot id or email,
or register
Callsign
Passwort

Schedule Details

Flight Number: DLH2101
Departure: Hannover Langenhagen Airport (EDDV) at 18:50
Arrival: Munich Airport (EDDM) at 20:00
Route: Lufthansa Passenger Schedule. Enter filed route here before submitting Pirep.

Weather Information
Getting current METAR information for EDDV 220050Z AUTO VRB01KT //// R09L/P2000N R09R/P2000N // ///////// 11/09 Q1013
Getting current METAR information for EDDM 220050Z VRB01KT 5000 1200N R08L/0800D R08R/P2000N BCFG NSC 08/08 Q1015 TEMPO 2500

Schedule Frequency

Route Map